createdAt,value
2022-09-30T00:02:31.000Z,99275.47
2022-09-30T00:05:19.688Z,99275.84
2022-09-30T00:08:09.499Z,99275.41
2022-09-30T00:11:04.080Z,99270.66
2022-09-30T00:13:53.412Z,99273.13
2022-09-30T00:16:41.923Z,99273.34
2022-09-30T00:19:30.402Z,99268.84
2022-09-30T00:22:18.825Z,99271.94
2022-09-30T00:25:09.220Z,99181.19
2022-09-30T00:27:57.648Z,99270.72
2022-09-30T00:30:46.303Z,99239.19
2022-09-30T00:33:35.451Z,99263.53
2022-09-30T00:36:23.862Z,99278.09
2022-09-30T00:39:15.023Z,99265.38
2022-09-30T00:42:06.521Z,99271.13
2022-09-30T00:44:56.994Z,99275.91
2022-09-30T00:47:48.596Z,99273.81
2022-09-30T00:50:39.052Z,99282.03
2022-09-30T00:53:30.726Z,99275.84
2022-09-30T00:56:22.875Z,99266.47
2022-09-30T00:59:16.178Z,99279.34
2022-09-30T01:02:05.704Z,99281.41
2022-09-30T01:04:55.115Z,99287.81
2022-09-30T01:07:43.592Z,99294.78
2022-09-30T01:10:32.108Z,99298.50
2022-09-30T01:13:21.012Z,99293.38
2022-09-30T01:16:42.697Z,99296.03
2022-09-30T01:19:52.005Z,99293.16
2022-09-30T01:22:44.771Z,99276.13
2022-09-30T01:26:05.382Z,99301.59
2022-09-30T01:29:35.623Z,99306.13
2022-09-30T01:32:31.714Z,99310.03
2022-09-30T01:35:26.435Z,99312.34
2022-09-30T01:38:18.325Z,99310.66
2022-09-30T01:41:09.480Z,99314.19
2022-09-30T01:44:04.162Z,99311.28
2022-09-30T01:46:56.098Z,99288.97
2022-09-30T01:49:49.386Z,99291.84
2022-09-30T01:52:41.650Z,99318.56
2022-09-30T01:55:32.936Z,99320.00
2022-09-30T01:58:26.642Z,99319.19
2022-09-30T02:01:19.912Z,99327.22
2022-09-30T02:04:11.841Z,99328.03
2022-09-30T02:07:06.439Z,99333.56
2022-09-30T02:09:57.450Z,99336.25
2022-09-30T02:12:49.087Z,99340.78
2022-09-30T02:15:40.668Z,99341.81
2022-09-30T02:18:31.771Z,99342.84
2022-09-30T02:21:24.069Z,99343.25
2022-09-30T02:24:16.483Z,99343.66
2022-09-30T02:27:05.816Z,99342.00
2022-09-30T02:29:57.848Z,99342.22
2022-09-30T02:32:49.832Z,99344.47
2022-09-30T02:35:40.634Z,99357.25
2022-09-30T02:38:32.162Z,99323.34
2022-09-30T02:41:26.333Z,99360.50
2022-09-30T02:44:15.604Z,99356.22
2022-09-30T02:47:11.095Z,99350.84
2022-09-30T02:50:03.488Z,99353.91
2022-09-30T02:53:03.373Z,99348.41
2022-09-30T02:56:07.503Z,99352.06
2022-09-30T02:58:58.286Z,99354.53
2022-09-30T03:01:46.939Z,99356.59
2022-09-30T03:04:36.158Z,99356.59
2022-09-30T03:07:25.105Z,99357.00
2022-09-30T03:10:14.653Z,99362.34
2022-09-30T03:13:17.692Z,99269.53
2022-09-30T03:16:16.804Z,99362.78
2022-09-30T03:19:20.566Z,99362.56
2022-09-30T03:22:21.540Z,99368.28
2022-09-30T03:25:18.693Z,99263.19
2022-09-30T03:28:14.476Z,99365.22
2022-09-30T03:31:07.057Z,99369.75
2022-09-30T03:34:01.059Z,99352.50
2022-09-30T03:36:56.183Z,99371.59
2022-09-30T03:39:52.790Z,99365.63
2022-09-30T03:42:45.729Z,99374.47
2022-09-30T03:45:37.763Z,99376.94
2022-09-30T03:48:27.001Z,99382.06
2022-09-30T03:51:17.498Z,99380.59
2022-09-30T03:54:08.154Z,99367.06
2022-09-30T03:56:56.590Z,99383.69
2022-09-30T03:59:45.122Z,99366.47
2022-09-30T04:02:36.320Z,99395.84
2022-09-30T04:05:24.731Z,99391.53
2022-09-30T04:08:14.863Z,99214.38
2022-09-30T04:11:03.282Z,99389.09
2022-09-30T04:13:51.742Z,99360.13
2022-09-30T04:16:40.291Z,99392.78
2022-09-30T04:19:28.852Z,99402.88
2022-09-30T04:22:17.540Z,99413.94
2022-09-30T04:25:08.952Z,99408.38
2022-09-30T04:27:57.510Z,99410.44
2022-09-30T04:30:45.971Z,99412.69
2022-09-30T04:33:35.134Z,99416.41
2022-09-30T04:36:23.919Z,99414.53
2022-09-30T04:39:12.366Z,99414.13
2022-09-30T04:42:02.296Z,99412.44
2022-09-30T04:44:51.005Z,99423.19
2022-09-30T04:47:39.943Z,99428.50
2022-09-30T04:50:28.566Z,99432.81
2022-09-30T04:53:17.507Z,99422.94
2022-09-30T04:56:07.019Z,99420.47
2022-09-30T04:58:57.356Z,99417.00
2022-09-30T05:01:45.770Z,99434.03
2022-09-30T05:04:34.286Z,99430.31
2022-09-30T05:07:22.887Z,99423.13
2022-09-30T05:10:11.725Z,99425.19
2022-09-30T05:13:00.296Z,99436.28
2022-09-30T05:15:50.934Z,99432.78
2022-09-30T05:18:41.056Z,99436.50
2022-09-30T05:21:29.949Z,99426.59
2022-09-30T05:24:18.560Z,99433.63
2022-09-30T05:27:07.592Z,99434.03
2022-09-30T05:29:55.988Z,99436.94
2022-09-30T05:32:46.365Z,99444.53
2022-09-30T05:35:34.852Z,99427.31
2022-09-30T05:38:23.269Z,99448.66
2022-09-30T05:41:13.246Z,99435.91
2022-09-30T05:44:02.667Z,99446.16
2022-09-30T05:46:51.123Z,99456.19
2022-09-30T05:49:41.741Z,99461.47
2022-09-30T05:52:30.211Z,99465.16
2022-09-30T05:55:18.997Z,99471.50
2022-09-30T05:58:07.442Z,99483.91
2022-09-30T06:00:56.183Z,99467.31
2022-09-30T06:03:45.520Z,99498.56
2022-09-30T06:06:35.341Z,99501.25
2022-09-30T06:09:23.940Z,99507.84
2022-09-30T06:12:12.479Z,99506.66
2022-09-30T06:15:00.915Z,99515.88
2022-09-30T06:17:53.338Z,99517.72
2022-09-30T06:20:42.102Z,99523.50
2022-09-30T06:23:34.950Z,99527.59
2022-09-30T06:26:24.049Z,99531.72
2022-09-30T06:29:12.517Z,99535.00
2022-09-30T06:32:01.603Z,99537.50
2022-09-30T06:34:50.043Z,99547.13
2022-09-30T06:37:38.729Z,99555.34
2022-09-30T06:40:28.505Z,99553.69
2022-09-30T06:43:17.121Z,99563.78
2022-09-30T06:46:14.312Z,99556.31
2022-09-30T06:49:12.999Z,99563.13
2022-09-30T06:52:02.642Z,99561.47
2022-09-30T06:54:51.871Z,99535.59
2022-09-30T06:57:43.641Z,99559.63
2022-09-30T07:00:32.134Z,99562.09
2022-09-30T07:03:25.607Z,99557.38
2022-09-30T07:06:16.004Z,99564.97
2022-09-30T07:09:04.793Z,99504.13
2022-09-30T07:11:53.342Z,99564.16
2022-09-30T07:14:43.134Z,99564.75
2022-09-30T07:17:31.850Z,99557.28
2022-09-30T07:20:20.460Z,99561.69
2022-09-30T07:23:09.280Z,99564.47
2022-09-30T07:26:00.388Z,99562.00
2022-09-30T07:28:49.436Z,99581.94
2022-09-30T07:31:39.758Z,99588.91
2022-09-30T07:34:28.665Z,99500.09
2022-09-30T07:37:19.001Z,99345.84
2022-09-30T07:40:09.424Z,99595.88
2022-09-30T07:42:58.536Z,99587.75
2022-09-30T07:45:47.062Z,99607.19
2022-09-30T07:48:54.461Z,99617.34
2022-09-30T07:51:45.344Z,99620.72
2022-09-30T07:54:40.247Z,99617.09
2022-09-30T07:57:30.393Z,99621.63
2022-09-30T08:00:41.070Z,99627.94
2022-09-30T08:03:27.551Z,99515.53
2022-09-30T08:06:19.290Z,99612.38
2022-09-30T08:09:08.614Z,99624.94
2022-09-30T08:11:57.403Z,99622.16
2022-09-30T08:14:45.853Z,99628.00
2022-09-30T08:17:34.311Z,99648.41
2022-09-30T08:20:22.879Z,99655.06
2022-09-30T08:23:12.954Z,99658.91
2022-09-30T08:26:02.887Z,99628.78
2022-09-30T08:28:51.572Z,99660.91
2022-09-30T08:31:40.497Z,99647.41
2022-09-30T08:34:33.773Z,99666.88
2022-09-30T08:37:22.308Z,99674.56
2022-09-30T08:40:19.956Z,99677.16
2022-09-30T08:43:17.552Z,99684.78
2022-09-30T08:46:11.101Z,99679.66
2022-09-30T08:49:14.717Z,99682.28
2022-09-30T08:52:04.372Z,99658.13
2022-09-30T08:54:54.737Z,99685.94
2022-09-30T08:57:47.646Z,99674.53
2022-09-30T09:00:36.906Z,99699.00
2022-09-30T09:03:29.119Z,99703.50
2022-09-30T09:06:23.681Z,99707.91
2022-09-30T09:09:42.665Z,99703.91
2022-09-30T09:12:38.563Z,99701.38
2022-09-30T09:15:47.167Z,99704.59
2022-09-30T09:18:43.369Z,99712.03
2022-09-30T09:21:40.480Z,99711.66
2022-09-30T09:24:30.846Z,99703.47
2022-09-30T09:27:21.349Z,99697.94
2022-09-30T09:30:12.667Z,99702.56
2022-09-30T09:33:12.252Z,99700.13
2022-09-30T09:36:09.706Z,99685.59
2022-09-30T09:39:17.395Z,99684.56
2022-09-30T09:42:12.093Z,99691.59
2022-09-30T09:45:04.987Z,99680.63
2022-09-30T09:47:53.562Z,99694.06
2022-09-30T09:50:50.386Z,99686.44
2022-09-30T09:53:48.135Z,99678.47
2022-09-30T09:56:37.835Z,99691.03
2022-09-30T09:59:26.477Z,99687.84
2022-09-30T10:02:24.331Z,99654.19
2022-09-30T10:05:26.177Z,99662.84
2022-09-30T10:08:18.830Z,99687.47
2022-09-30T10:11:08.990Z,99699.81
2022-09-30T10:13:58.593Z,99701.97
2022-09-30T10:16:47.417Z,99693.13
2022-09-30T10:19:36.298Z,99701.44
2022-09-30T10:22:28.962Z,99712.34
2022-09-30T10:25:25.138Z,99711.09
2022-09-30T10:28:25.689Z,99710.63
2022-09-30T10:31:18.555Z,99710.78
2022-09-30T10:34:13.153Z,99716.47
2022-09-30T10:37:04.012Z,99707.03
2022-09-30T10:39:58.381Z,99699.41
2022-09-30T10:42:49.447Z,99704.66
2022-09-30T10:45:41.308Z,99702.09
2022-09-30T10:48:32.765Z,99698.25
2022-09-30T10:51:28.591Z,99699.50
2022-09-30T10:54:45.537Z,99706.97
2022-09-30T10:57:35.790Z,99711.78
2022-09-30T11:00:27.693Z,99707.31
2022-09-30T11:03:19.897Z,99691.84
2022-09-30T11:06:11.825Z,99714.22
2022-09-30T11:09:04.505Z,99694.84
2022-09-30T11:11:57.125Z,99682.22
2022-09-30T11:14:49.975Z,99677.69
2022-09-30T11:17:43.761Z,99715.53
2022-09-30T11:20:35.156Z,99715.75
2022-09-30T11:23:28.739Z,99709.16
2022-09-30T11:26:27.559Z,99696.03
2022-09-30T11:29:44.810Z,99711.44
2022-09-30T11:32:51.493Z,99715.81
2022-09-30T11:35:53.281Z,99720.59
2022-09-30T11:38:51.660Z,99685.34
2022-09-30T11:41:42.075Z,99711.81
2022-09-30T11:44:34.623Z,99694.50
2022-09-30T11:47:38.816Z,99716.34
2022-09-30T11:50:42.059Z,99702.97
2022-09-30T11:53:42.596Z,99710.50
2022-09-30T11:56:44.099Z,99709.91
2022-09-30T11:59:36.885Z,99697.44
2022-09-30T12:02:32.652Z,99706.91
2022-09-30T12:05:25.392Z,99681.63
2022-09-30T12:08:18.387Z,99620.59
2022-09-30T12:11:10.484Z,99699.50
2022-09-30T12:14:04.901Z,99681.16
2022-09-30T12:16:53.797Z,99669.03
2022-09-30T12:19:45.037Z,99696.88
2022-09-30T12:22:36.691Z,99696.09
2022-09-30T12:25:29.498Z,99699.44
2022-09-30T12:28:41.704Z,99705.97
2022-09-30T12:31:58.189Z,99698.31
2022-09-30T12:35:01.983Z,99720.91
2022-09-30T12:38:03.399Z,99679.88
2022-09-30T12:41:01.269Z,99716.13
2022-09-30T12:44:07.893Z,99705.47
2022-09-30T12:47:07.573Z,99714.81
2022-09-30T12:49:58.063Z,99702.66
2022-09-30T12:52:50.842Z,99693.72
2022-09-30T12:55:41.556Z,99705.25
2022-09-30T12:58:33.120Z,99695.31
2022-09-30T13:01:24.406Z,99703.16
2022-09-30T13:04:31.839Z,99712.88
2022-09-30T13:07:22.867Z,99707.19
2022-09-30T13:10:28.171Z,99707.38
2022-09-30T13:13:23.833Z,99707.63
2022-09-30T13:16:13.717Z,99710.31
2022-09-30T13:19:02.722Z,99710.56
2022-09-30T13:21:52.185Z,99707.38
2022-09-30T13:25:06.653Z,99722.66
2022-09-30T13:28:28.603Z,99725.41
2022-09-30T13:31:19.706Z,99717.38
2022-09-30T13:34:12.435Z,99723.28
2022-09-30T13:37:02.497Z,99717.03
2022-09-30T13:39:55.660Z,99722.94
2022-09-30T13:42:51.215Z,99720.75
2022-09-30T13:45:40.026Z,99720.56
2022-09-30T13:48:32.819Z,99661.56
2022-09-30T13:51:22.415Z,99722.56
2022-09-30T13:54:15.851Z,99732.03
2022-09-30T13:57:06.113Z,99721.28
2022-09-30T14:00:06.027Z,99733.13
2022-09-30T14:03:07.453Z,99725.28
2022-09-30T14:06:07.343Z,99720.94
2022-09-30T14:09:26.216Z,99717.66
2022-09-30T14:12:29.069Z,99735.78
2022-09-30T14:15:57.183Z,99738.09
2022-09-30T14:19:04.749Z,99728.78
2022-09-30T14:21:55.978Z,99724.13
2022-09-30T14:24:44.543Z,99734.63
2022-09-30T14:27:41.764Z,99727.59
2022-09-30T14:30:34.404Z,99722.47
2022-09-30T14:33:25.643Z,99723.06
2022-09-30T14:36:16.362Z,99720.31
2022-09-30T14:39:06.978Z,99719.47
2022-09-30T14:41:58.239Z,99717.25
2022-09-30T14:44:49.186Z,99713.97
2022-09-30T14:47:39.389Z,99706.28
2022-09-30T14:50:31.088Z,99718.81
2022-09-30T14:53:28.123Z,99710.69
2022-09-30T14:56:21.953Z,99722.41
2022-09-30T14:59:18.679Z,99725.75
2022-09-30T15:02:15.368Z,99725.50
2022-09-30T15:05:05.457Z,99719.81
2022-09-30T15:07:54.581Z,99714.31
2022-09-30T15:10:48.347Z,99726.56
2022-09-30T15:13:41.341Z,99717.88
2022-09-30T15:16:31.926Z,99725.13
2022-09-30T15:19:26.012Z,99613.00
2022-09-30T15:22:14.898Z,99718.06
2022-09-30T15:25:03.915Z,99707.97
2022-09-30T15:27:52.735Z,99708.50
2022-09-30T15:30:43.095Z,99716.06
2022-09-30T15:33:32.915Z,99695.84
2022-09-30T15:36:28.459Z,99714.88
2022-09-30T15:39:23.002Z,99718.09
2022-09-30T15:42:12.690Z,99717.22
2022-09-30T15:45:01.205Z,99673.03
2022-09-30T15:47:58.560Z,99671.16
2022-09-30T15:50:49.018Z,99720.19
2022-09-30T15:53:47.840Z,99717.63
2022-09-30T15:56:37.873Z,99697.47
2022-09-30T15:59:59.340Z,99712.66
2022-09-30T16:02:47.860Z,99703.75
2022-09-30T16:05:37.683Z,99703.78
2022-09-30T16:08:28.074Z,99707.50
2022-09-30T16:11:22.065Z,99702.88
2022-09-30T16:14:17.804Z,99589.47
2022-09-30T16:17:07.583Z,99678.31
2022-09-30T16:19:58.777Z,99708.78
2022-09-30T16:22:53.599Z,99710.03
2022-09-30T16:25:42.190Z,99704.78
2022-09-30T16:28:30.781Z,99706.13
2022-09-30T16:31:20.265Z,99696.63
2022-09-30T16:34:12.602Z,99702.34
2022-09-30T16:37:08.824Z,99697.53
2022-09-30T16:40:09.172Z,99693.94
2022-09-30T16:43:06.613Z,99692.66
2022-09-30T16:45:56.857Z,99699.38
2022-09-30T16:48:48.045Z,99703.31
2022-09-30T16:51:39.246Z,99700.22
2022-09-30T16:54:28.942Z,99694.00
2022-09-30T16:57:25.706Z,99698.03
2022-09-30T17:00:18.969Z,99700.94
2022-09-30T17:03:09.414Z,99706.94
2022-09-30T17:05:58.098Z,99706.91
2022-09-30T17:08:46.596Z,99702.88
2022-09-30T17:11:36.481Z,99711.63
2022-09-30T17:14:26.296Z,99708.31
2022-09-30T17:17:14.915Z,99726.38
2022-09-30T17:20:03.601Z,99726.41
2022-09-30T17:22:52.178Z,99728.28
2022-09-30T17:25:42.322Z,99730.16
2022-09-30T17:28:34.662Z,99725.59
2022-09-30T17:31:24.581Z,99714.13
2022-09-30T17:34:13.344Z,99734.03
2022-09-30T17:37:01.836Z,99638.50
2022-09-30T17:39:50.297Z,99735.31
2022-09-30T17:42:58.646Z,99730.72
2022-09-30T17:45:51.383Z,99748.75
2022-09-30T17:48:41.925Z,99753.59
2022-09-30T17:51:30.689Z,99756.19
2022-09-30T17:54:19.336Z,99758.84
2022-09-30T17:57:08.290Z,99762.69
2022-09-30T17:59:58.844Z,99768.31
2022-09-30T18:02:48.169Z,99769.22
2022-09-30T18:05:38.154Z,99769.19
2022-09-30T18:08:28.210Z,99769.22
2022-09-30T18:11:20.834Z,99773.03
2022-09-30T18:14:11.698Z,99756.50
2022-09-30T18:17:03.043Z,99781.97
2022-09-30T18:19:54.533Z,99774.13
2022-09-30T18:22:44.368Z,99773.00
2022-09-30T18:25:32.859Z,99786.66
2022-09-30T18:28:21.377Z,99792.91
2022-09-30T18:31:09.940Z,99797.97
2022-09-30T18:33:59.270Z,99800.50
2022-09-30T18:36:47.740Z,99807.97
2022-09-30T18:39:38.166Z,99793.59
2022-09-30T18:42:26.903Z,99815.47
2022-09-30T18:45:15.459Z,99820.25
2022-09-30T18:48:04.340Z,99825.72
2022-09-30T18:50:55.920Z,99827.81
2022-09-30T18:53:44.711Z,99830.38
2022-09-30T18:56:34.562Z,99824.22
2022-09-30T18:59:24.150Z,99831.25
2022-09-30T19:02:15.144Z,99820.09
2022-09-30T19:05:03.687Z,99819.50
2022-09-30T19:07:53.134Z,99811.44
2022-09-30T19:10:42.397Z,99809.22
2022-09-30T19:13:32.276Z,99810.69
2022-09-30T19:16:22.173Z,99797.72
2022-09-30T19:19:11.160Z,99799.78
2022-09-30T19:22:01.254Z,99785.34
2022-09-30T19:24:49.738Z,99743.78
2022-09-30T19:27:39.159Z,99763.53
2022-09-30T19:30:29.156Z,99769.69
2022-09-30T19:33:18.184Z,99774.28
2022-09-30T19:36:14.474Z,99788.13
2022-09-30T19:39:11.731Z,99786.28
2022-09-30T19:42:04.042Z,99786.06
2022-09-30T19:44:52.812Z,99779.84
2022-09-30T19:47:42.717Z,99778.88
2022-09-30T19:50:31.254Z,99781.13
2022-09-30T19:53:28.577Z,99787.34
2022-09-30T19:56:20.384Z,99743.09
2022-09-30T19:59:08.938Z,99792.28
2022-09-30T20:01:57.528Z,99788.53
2022-09-30T20:04:48.084Z,99794.56
2022-09-30T20:07:36.526Z,99786.97
2022-09-30T20:10:25.003Z,99800.97
2022-09-30T20:13:13.440Z,99786.38
2022-09-30T20:16:01.707Z,99797.72
2022-09-30T20:18:50.193Z,99788.25
2022-09-30T20:21:41.836Z,99798.78
2022-09-30T20:24:31.902Z,99805.00
2022-09-30T20:27:20.506Z,99809.13
2022-09-30T20:30:09.736Z,99804.81
2022-09-30T20:32:58.319Z,99814.28
2022-09-30T20:35:47.965Z,99818.81
2022-09-30T20:38:38.973Z,99827.69
2022-09-30T20:41:28.040Z,99825.84
2022-09-30T20:44:16.982Z,99800.75
2022-09-30T20:47:05.440Z,99824.03
2022-09-30T20:49:53.946Z,99826.94
2022-09-30T20:52:43.090Z,99821.81
2022-09-30T20:55:35.091Z,99828.63
2022-09-30T20:58:23.565Z,99827.38
2022-09-30T21:01:13.973Z,99832.94
2022-09-30T21:04:02.922Z,99818.69
2022-09-30T21:06:51.477Z,99829.41
2022-09-30T21:09:40.008Z,99835.81
2022-09-30T21:12:31.345Z,99698.00
2022-09-30T21:15:19.842Z,99850.44
2022-09-30T21:18:08.320Z,99859.09
2022-09-30T21:20:58.697Z,99859.72
2022-09-30T21:23:47.378Z,99863.81
2022-09-30T21:26:35.824Z,99868.16
2022-09-30T21:29:26.148Z,99865.25
2022-09-30T21:32:15.356Z,99862.78
2022-09-30T21:35:04.229Z,99869.56
2022-09-30T21:37:52.688Z,99867.72
2022-09-30T21:40:41.133Z,99866.28
2022-09-30T21:43:31.334Z,99857.41
2022-09-30T21:46:22.034Z,99857.41
2022-09-30T21:49:17.002Z,99853.09
2022-09-30T21:52:09.101Z,99837.00
2022-09-30T21:54:57.574Z,99861.28
2022-09-30T21:57:47.330Z,99845.03
2022-09-30T22:00:36.032Z,99852.59
2022-09-30T22:03:26.276Z,99850.56
2022-09-30T22:06:16.104Z,99845.00
2022-09-30T22:09:05.266Z,99854.28
2022-09-30T22:11:54.826Z,99841.50
2022-09-30T22:14:43.298Z,99834.50
2022-09-30T22:17:31.821Z,99835.09
2022-09-30T22:20:21.975Z,99833.66
2022-09-30T22:23:10.473Z,99806.25
2022-09-30T22:25:58.942Z,99818.97
2022-09-30T22:28:48.427Z,99847.22
2022-09-30T22:31:37.423Z,99847.63
2022-09-30T22:34:43.886Z,99837.94
2022-09-30T22:37:51.385Z,99829.72
2022-09-30T22:40:39.839Z,99833.59
2022-09-30T22:43:28.555Z,99834.84
2022-09-30T22:46:17.048Z,99833.81
2022-09-30T22:49:06.043Z,99832.16
2022-09-30T22:51:55.681Z,99841.03
2022-09-30T22:54:45.509Z,99826.22
2022-09-30T22:57:34.227Z,99829.28
2022-09-30T23:00:22.664Z,99830.13
2022-09-30T23:03:11.855Z,99834.44
2022-09-30T23:06:01.201Z,99825.56
2022-09-30T23:08:50.360Z,99828.84
2022-09-30T23:11:42.207Z,99829.66
2022-09-30T23:14:30.676Z,99835.19
2022-09-30T23:17:19.107Z,99832.50
2022-09-30T23:20:08.490Z,99833.66
2022-09-30T23:22:56.925Z,99840.56
2022-09-30T23:25:45.434Z,99839.13
2022-09-30T23:28:36.238Z,99833.53
2022-09-30T23:31:25.070Z,99837.19
2022-09-30T23:34:14.128Z,99789.53
2022-09-30T23:37:02.581Z,99831.66
2022-09-30T23:39:51.023Z,99827.78
2022-09-30T23:42:39.528Z,99834.13
2022-09-30T23:45:29.383Z,99828.19
2022-09-30T23:48:17.931Z,99835.22
2022-09-30T23:51:06.998Z,99834.38
2022-09-30T23:53:55.788Z,99826.34
2022-09-30T23:56:44.930Z,99818.34
2022-09-30T23:59:33.983Z,99808.00
